CES582 CYVR-ZSPD
Flight info
| Callsign | CES582 |
|---|---|
| Flight time | N/A |
| Altitude | 36000 |
| Route | UQQ DCT KATCH DCT HMPTN DCT GRIZZ DCT CJAYY DCT 58N160W DCT CHUUK DCT OBOYD DCT NATES DCT NIKLL DCT NYMPH DCT NUZAN DCT NRKEY DCT NIPPI R220 BEKEN Y512 GTC Y142 SAMON Y14 DGC Y28 ISAKY Y592 ONIKU A593 LAMEN/K0883F360 A593 DUMET |
| Aircraft | A359/H-SDE2E3FGHIJ1J2J3J4J5LM1ORWXYZ/LB1D1 |
Departure
| Time | 2026-05-07 17:16 |
|---|---|
| Airport | Vancouver International Airport (CYVR) |
Arrival
| Time | N/A |
|---|---|
| Airport | Shanghai Pudong International Airport (ZSPD) |
| Time | Latitude | Longitude | Altitude | Speed | Heading |
|---|---|---|---|---|---|
| 2026-05-07 16:36 | 49.19952 | -123.18283 | 29 ft | 0 kts | 189° |
| 2026-05-07 17:02 | 49.19964 | -123.18280 | 28 ft | 4 kts | 189° |
| 2026-05-07 17:03 | 49.19987 | -123.18275 | 28 ft | 4 kts | 192° |
| 2026-05-07 17:03 | 49.20009 | -123.18263 | 27 ft | 4 kts | 223° |
| 2026-05-07 17:03 | 49.20019 | -123.18243 | 27 ft | 4 kts | 268° |
| 2026-05-07 17:03 | 49.20016 | -123.18206 | 27 ft | 4 kts | 284° |
| 2026-05-07 17:04 | 49.20012 | -123.18179 | 26 ft | 1 kts | 279° |
| 2026-05-07 17:04 | 49.20012 | -123.18176 | 26 ft | 0 kts | 279° |
| 2026-05-07 17:07 | 49.20012 | -123.18179 | 26 ft | 1 kts | 279° |
| 2026-05-07 17:07 | 49.20017 | -123.18222 | 29 ft | 6 kts | 279° |
| 2026-05-07 17:08 | 49.20025 | -123.18291 | 29 ft | 7 kts | 279° |
| 2026-05-07 17:08 | 49.20035 | -123.18380 | 29 ft | 9 kts | 279° |
| 2026-05-07 17:08 | 49.20041 | -123.18481 | 29 ft | 9 kts | 261° |
| 2026-05-07 17:08 | 49.19995 | -123.18533 | 29 ft | 9 kts | 196° |
| 2026-05-07 17:09 | 49.19933 | -123.18551 | 29 ft | 10 kts | 189° |
| 2026-05-07 17:09 | 49.19861 | -123.18568 | 29 ft | 11 kts | 189° |
| 2026-05-07 17:09 | 49.19783 | -123.18588 | 29 ft | 12 kts | 190° |
| 2026-05-07 17:09 | 49.19709 | -123.18648 | 29 ft | 12 kts | 212° |
| 2026-05-07 17:10 | 49.19623 | -123.18685 | 29 ft | 13 kts | 189° |
| 2026-05-07 17:10 | 49.19531 | -123.18708 | 29 ft | 14 kts | 190° |
| 2026-05-07 17:10 | 49.19434 | -123.18736 | 29 ft | 15 kts | 193° |
| 2026-05-07 17:10 | 49.19378 | -123.18848 | 29 ft | 14 kts | 256° |
| 2026-05-07 17:11 | 49.19363 | -123.18961 | 29 ft | 11 kts | 260° |
| 2026-05-07 17:11 | 49.19349 | -123.19076 | 29 ft | 11 kts | 259° |
| 2026-05-07 17:11 | 49.19334 | -123.19201 | 29 ft | 12 kts | 259° |
| 2026-05-07 17:11 | 49.19318 | -123.19343 | 27 ft | 15 kts | 260° |
| 2026-05-07 17:12 | 49.19300 | -123.19494 | 29 ft | 14 kts | 259° |
| 2026-05-07 17:12 | 49.19281 | -123.19641 | 29 ft | 14 kts | 259° |
| 2026-05-07 17:12 | 49.19262 | -123.19795 | 29 ft | 15 kts | 259° |
| 2026-05-07 17:12 | 49.19241 | -123.19956 | 29 ft | 16 kts | 259° |
| 2026-05-07 17:13 | 49.19221 | -123.20123 | 29 ft | 16 kts | 259° |
| 2026-05-07 17:13 | 49.19199 | -123.20296 | 29 ft | 17 kts | 259° |
| 2026-05-07 17:13 | 49.19179 | -123.20474 | 29 ft | 17 kts | 268° |
| 2026-05-07 17:13 | 49.19192 | -123.20640 | 29 ft | 11 kts | 279° |
| 2026-05-07 17:14 | 49.19200 | -123.20760 | 29 ft | 12 kts | 261° |
| 2026-05-07 17:14 | 49.19152 | -123.20827 | 29 ft | 10 kts | 196° |
| 2026-05-07 17:14 | 49.19083 | -123.20849 | 29 ft | 11 kts | 190° |
| 2026-05-07 17:14 | 49.19029 | -123.20824 | 29 ft | 7 kts | 142° |
| 2026-05-07 17:15 | 49.19005 | -123.20766 | 30 ft | 6 kts | 112° |
| 2026-05-07 17:15 | 49.18998 | -123.20703 | 30 ft | 6 kts | 98° |
| 2026-05-07 17:15 | 49.18991 | -123.20636 | 31 ft | 7 kts | 99° |
| 2026-05-07 17:15 | 49.18974 | -123.20489 | 30 ft | 30 kts | 100° |
| 2026-05-07 17:16 | 49.18902 | -123.19859 | 29 ft | 90 kts | 100° |
| 2026-05-07 17:16 | 49.18765 | -123.18644 | 27 ft | 141 kts | 99° |
| 2026-05-07 17:16 | 49.18576 | -123.16935 | 87 ft | 179 kts | 98° |
| 2026-05-07 17:16 | 49.18389 | -123.15173 | 926 ft | 159 kts | 98° |
| 2026-05-07 17:17 | 49.17968 | -123.13708 | 1620 ft | 148 kts | 136° |
| 2026-05-07 17:17 | 49.17030 | -123.13170 | 2041 ft | 151 kts | 184° |
| 2026-05-07 17:17 | 49.16098 | -123.13920 | 2349 ft | 161 kts | 224° |
| 2026-05-07 17:17 | 49.15488 | -123.15395 | 2684 ft | 171 kts | 245° |
| 2026-05-07 17:18 | 49.15278 | -123.17241 | 3038 ft | 181 kts | 271° |
| 2026-05-07 17:18 | 49.15474 | -123.19169 | 3337 ft | 193 kts | 279° |
| 2026-05-07 17:18 | 49.15920 | -123.21200 | 3581 ft | 210 kts | 292° |
| 2026-05-07 17:18 | 49.16541 | -123.23338 | 3803 ft | 229 kts | 296° |
| 2026-05-07 17:19 | 49.17282 | -123.25585 | 4130 ft | 245 kts | 297° |
| 2026-05-07 17:19 | 49.18101 | -123.27939 | 4622 ft | 254 kts | 298° |
| 2026-05-07 17:19 | 49.18944 | -123.30328 | 5265 ft | 257 kts | 298° |
| 2026-05-07 17:19 | 49.19788 | -123.32736 | 5891 ft | 259 kts | 297° |
| 2026-05-07 17:20 | 49.20639 | -123.35196 | 6500 ft | 261 kts | 296° |
| 2026-05-07 17:20 | 49.21491 | -123.37694 | 7025 ft | 266 kts | 296° |
| 2026-05-07 17:20 | 49.22339 | -123.40201 | 7590 ft | 268 kts | 296° |
| 2026-05-07 17:20 | 49.23192 | -123.42733 | 8148 ft | 270 kts | 296° |
| 2026-05-07 17:21 | 49.24051 | -123.45290 | 8692 ft | 272 kts | 296° |
| 2026-05-07 17:21 | 49.24922 | -123.47882 | 9298 ft | 274 kts | 296° |
| 2026-05-07 17:21 | 49.25795 | -123.50477 | 9895 ft | 275 kts | 296° |
| 2026-05-07 17:21 | 49.26681 | -123.53115 | 10312 ft | 283 kts | 296° |
| 2026-05-07 17:22 | 49.27600 | -123.55856 | 10572 ft | 296 kts | 296° |
| 2026-05-07 17:22 | 49.28557 | -123.58716 | 10829 ft | 308 kts | 296° |
| 2026-05-07 17:22 | 49.29550 | -123.61682 | 11099 ft | 319 kts | 296° |
| 2026-05-07 17:22 | 49.30582 | -123.64768 | 11356 ft | 330 kts | 296° |
| 2026-05-07 17:23 | 49.31638 | -123.67928 | 11618 ft | 340 kts | 296° |
| 2026-05-07 17:23 | 49.32731 | -123.71204 | 11979 ft | 346 kts | 296° |
| 2026-05-07 17:23 | 49.33833 | -123.74508 | 12411 ft | 349 kts | 296° |
| 2026-05-07 17:23 | 49.34943 | -123.77843 | 12845 ft | 353 kts | 296° |
| 2026-05-07 17:24 | 49.36061 | -123.81205 | 13291 ft | 355 kts | 296° |
| 2026-05-07 17:24 | 49.37186 | -123.84592 | 13756 ft | 358 kts | 296° |
| 2026-05-07 17:24 | 49.38317 | -123.88004 | 14188 ft | 359 kts | 296° |
| 2026-05-07 17:24 | 49.39458 | -123.91451 | 14578 ft | 362 kts | 296° |
| 2026-05-07 17:25 | 49.40596 | -123.94895 | 14982 ft | 363 kts | 295° |
| 2026-05-07 17:25 | 49.41742 | -123.98368 | 15405 ft | 365 kts | 295° |
| 2026-05-07 17:25 | 49.42884 | -124.01832 | 15813 ft | 367 kts | 295° |
| 2026-05-07 17:25 | 49.44027 | -124.05307 | 16213 ft | 369 kts | 295° |
| 2026-05-07 17:26 | 49.45201 | -124.08877 | 16633 ft | 370 kts | 295° |
| 2026-05-07 17:26 | 49.46348 | -124.12372 | 17030 ft | 372 kts | 295° |
| 2026-05-07 17:26 | 49.47510 | -124.15918 | 17451 ft | 374 kts | 295° |
| 2026-05-07 17:26 | 49.48684 | -124.19506 | 17848 ft | 376 kts | 295° |
| 2026-05-07 17:27 | 49.49862 | -124.23110 | 18252 ft | 377 kts | 295° |
| 2026-05-07 17:27 | 49.51013 | -124.26641 | 18623 ft | 379 kts | 295° |
| 2026-05-07 17:27 | 49.52162 | -124.30165 | 18969 ft | 380 kts | 295° |
| 2026-05-07 17:27 | 49.53353 | -124.33823 | 19341 ft | 381 kts | 295° |
| 2026-05-07 17:28 | 49.54540 | -124.37476 | 19678 ft | 383 kts | 295° |
| 2026-05-07 17:28 | 49.55734 | -124.41156 | 20038 ft | 384 kts | 295° |
| 2026-05-07 17:28 | 49.56927 | -124.44838 | 20375 ft | 385 kts | 295° |
| 2026-05-07 17:28 | 49.58127 | -124.48547 | 20705 ft | 387 kts | 295° |
| 2026-05-07 17:29 | 49.59330 | -124.52268 | 21030 ft | 388 kts | 295° |
| 2026-05-07 17:29 | 49.60506 | -124.55916 | 21361 ft | 389 kts | 295° |
| 2026-05-07 17:29 | 49.61688 | -124.59584 | 21695 ft | 390 kts | 294° |
| 2026-05-07 17:29 | 49.62922 | -124.63422 | 22027 ft | 392 kts | 294° |
| 2026-05-07 17:30 | 49.64132 | -124.67189 | 22331 ft | 393 kts | 294° |
| 2026-05-07 17:30 | 49.65346 | -124.70975 | 22646 ft | 394 kts | 294° |
| 2026-05-07 17:30 | 49.66562 | -124.74773 | 22961 ft | 395 kts | 294° |
| 2026-05-07 17:30 | 49.67780 | -124.78583 | 23257 ft | 397 kts | 294° |
| 2026-05-07 17:31 | 49.68891 | -124.82065 | 23541 ft | 398 kts | 294° |
| 2026-05-07 17:31 | 49.70121 | -124.85920 | 23861 ft | 399 kts | 294° |
| 2026-05-07 17:31 | 49.71480 | -124.89654 | 24085 ft | 402 kts | 301° |
| 2026-05-07 17:31 | 49.73044 | -124.93225 | 24325 ft | 404 kts | 302° |
| 2026-05-07 17:32 | 49.74679 | -124.96781 | 24578 ft | 406 kts | 303° |
| 2026-05-07 17:32 | 49.76348 | -125.00321 | 24829 ft | 407 kts | 303° |
| 2026-05-07 17:32 | 49.78029 | -125.03852 | 25082 ft | 408 kts | 303° |
| 2026-05-07 17:32 | 49.79143 | -125.06190 | 25243 ft | 409 kts | 303° |
| 2026-05-07 17:33 | 49.81376 | -125.10888 | 25567 ft | 411 kts | 303° |
| 2026-05-07 17:33 | 49.83096 | -125.14522 | 25833 ft | 412 kts | 303° |
| 2026-05-07 17:33 | 49.84759 | -125.18051 | 26088 ft | 413 kts | 303° |
| 2026-05-07 17:33 | 49.86455 | -125.21661 | 26338 ft | 414 kts | 303° |
| 2026-05-07 17:34 | 49.88149 | -125.25275 | 26600 ft | 415 kts | 303° |
| 2026-05-07 17:34 | 49.89848 | -125.28903 | 26864 ft | 416 kts | 303° |
| 2026-05-07 17:34 | 49.91553 | -125.32551 | 27123 ft | 418 kts | 303° |
| 2026-05-07 17:34 | 49.93261 | -125.36212 | 27375 ft | 419 kts | 303° |
| 2026-05-07 17:35 | 49.94972 | -125.39881 | 27639 ft | 420 kts | 303° |
| 2026-05-07 17:35 | 49.96684 | -125.43558 | 27910 ft | 421 kts | 303° |
| 2026-05-07 17:35 | 49.98411 | -125.47271 | 28161 ft | 423 kts | 303° |
| 2026-05-07 17:35 | 50.00125 | -125.50963 | 28401 ft | 425 kts | 303° |
| 2026-05-07 17:36 | 50.01866 | -125.54718 | 28681 ft | 426 kts | 303° |
| 2026-05-07 17:36 | 50.03599 | -125.58460 | 28960 ft | 427 kts | 303° |
| 2026-05-07 17:36 | 50.05335 | -125.62215 | 29229 ft | 428 kts | 303° |
| 2026-05-07 17:36 | 50.07081 | -125.65995 | 29480 ft | 430 kts | 303° |
| 2026-05-07 17:37 | 50.08832 | -125.69790 | 29736 ft | 432 kts | 302° |
| 2026-05-07 17:37 | 50.10560 | -125.73543 | 30002 ft | 433 kts | 303° |
| 2026-05-07 17:37 | 50.12317 | -125.77363 | 30271 ft | 434 kts | 302° |
| 2026-05-07 17:37 | 50.14075 | -125.81195 | 30484 ft | 436 kts | 303° |
| 2026-05-07 17:38 | 50.15840 | -125.85044 | 30709 ft | 437 kts | 302° |
| 2026-05-07 17:38 | 50.17612 | -125.88912 | 30930 ft | 439 kts | 302° |
| 2026-05-07 17:38 | 50.19383 | -125.92782 | 31190 ft | 439 kts | 302° |
| 2026-05-07 17:38 | 50.21167 | -125.96689 | 31408 ft | 440 kts | 302° |
| 2026-05-07 17:39 | 50.22940 | -126.00580 | 31618 ft | 442 kts | 302° |
| 2026-05-07 17:39 | 50.24725 | -126.04505 | 31852 ft | 443 kts | 302° |
| 2026-05-07 17:39 | 50.26505 | -126.08424 | 32105 ft | 443 kts | 302° |
| 2026-05-07 17:39 | 50.28288 | -126.12357 | 32333 ft | 444 kts | 302° |
| 2026-05-07 17:40 | 50.30076 | -126.16302 | 32589 ft | 444 kts | 302° |
| 2026-05-07 17:40 | 50.31861 | -126.20244 | 32944 ft | 442 kts | 302° |
| 2026-05-07 17:40 | 50.33632 | -126.24161 | 33289 ft | 441 kts | 302° |
| 2026-05-07 17:40 | 50.35404 | -126.28092 | 33620 ft | 440 kts | 302° |
| 2026-05-07 17:41 | 50.37146 | -126.31962 | 33923 ft | 438 kts | 302° |
| 2026-05-07 17:41 | 50.38902 | -126.35868 | 34151 ft | 438 kts | 302° |
| 2026-05-07 17:41 | 50.42463 | -126.43809 | 34304 ft | 445 kts | 302° |
| 2026-05-07 17:42 | 50.43635 | -126.46425 | 34554 ft | 442 kts | 302° |
| 2026-05-07 17:42 | 50.45996 | -126.51702 | 34921 ft | 441 kts | 302° |
| 2026-05-07 17:42 | 50.47736 | -126.55597 | 35161 ft | 440 kts | 302° |
| 2026-05-07 17:42 | 50.48922 | -126.58259 | 35349 ft | 439 kts | 302° |
| 2026-05-07 17:43 | 50.50668 | -126.62180 | 35608 ft | 438 kts | 302° |
| 2026-05-07 17:43 | 50.52982 | -126.67386 | 35951 ft | 437 kts | 302° |
| 2026-05-07 17:43 | 50.54159 | -126.70039 | 36126 ft | 436 kts | 302° |
| 2026-05-07 17:43 | 50.55884 | -126.73933 | 36225 ft | 439 kts | 302° |
| 2026-05-07 17:44 | 50.59391 | -126.81873 | 36225 ft | 443 kts | 302° |
| 2026-05-07 17:44 | 50.62905 | -126.89841 | 36230 ft | 442 kts | 301° |
| 2026-05-07 17:45 | 50.66385 | -126.97754 | 36230 ft | 442 kts | 301° |
| 2026-05-07 17:45 | 50.69880 | -127.05730 | 36229 ft | 442 kts | 301° |
| 2026-05-07 17:46 | 50.73396 | -127.13778 | 36230 ft | 443 kts | 301° |
| 2026-05-07 17:46 | 50.76863 | -127.21739 | 36232 ft | 443 kts | 301° |
| 2026-05-07 17:47 | 50.80353 | -127.29777 | 36228 ft | 443 kts | 301° |
| 2026-05-07 17:47 | 50.83837 | -127.37825 | 36231 ft | 443 kts | 301° |
| 2026-05-07 17:48 | 50.87317 | -127.45889 | 36229 ft | 444 kts | 301° |
| 2026-05-07 17:48 | 50.90795 | -127.53974 | 36230 ft | 444 kts | 301° |
| 2026-05-07 17:49 | 50.94262 | -127.62058 | 36231 ft | 444 kts | 301° |
| 2026-05-07 17:49 | 50.97736 | -127.70183 | 36223 ft | 444 kts | 301° |
| 2026-05-07 17:50 | 51.01201 | -127.78315 | 36222 ft | 445 kts | 301° |
| 2026-05-07 17:50 | 51.04639 | -127.86404 | 36220 ft | 445 kts | 301° |
| 2026-05-07 17:51 | 51.08093 | -127.94560 | 36218 ft | 445 kts | 301° |
| 2026-05-07 17:51 | 51.11542 | -128.02730 | 36214 ft | 445 kts | 300° |
| 2026-05-07 17:52 | 51.14990 | -128.10920 | 36214 ft | 445 kts | 300° |
| 2026-05-07 17:52 | 51.18434 | -128.19129 | 36214 ft | 445 kts | 300° |
| 2026-05-07 17:53 | 51.21876 | -128.27359 | 36220 ft | 445 kts | 300° |
| 2026-05-07 17:53 | 51.25282 | -128.35528 | 36203 ft | 445 kts | 300° |
| 2026-05-07 17:54 | 51.28708 | -128.43771 | 36222 ft | 446 kts | 300° |
| 2026-05-07 17:54 | 51.32135 | -128.52044 | 36207 ft | 446 kts | 300° |
| 2026-05-07 17:55 | 51.35552 | -128.60318 | 36209 ft | 446 kts | 300° |
| 2026-05-07 17:55 | 51.38970 | -128.68621 | 36211 ft | 446 kts | 300° |
| 2026-05-07 17:56 | 51.42372 | -128.76911 | 36214 ft | 446 kts | 300° |
| 2026-05-07 17:56 | 51.45780 | -128.85243 | 36211 ft | 446 kts | 300° |
| 2026-05-07 17:57 | 51.48607 | -128.92178 | 36215 ft | 447 kts | 299° |
| 2026-05-07 17:57 | 51.52578 | -129.01946 | 36216 ft | 447 kts | 299° |
| 2026-05-07 17:58 | 51.55971 | -129.10321 | 36222 ft | 447 kts | 299° |
| 2026-05-07 17:58 | 51.59341 | -129.18668 | 36222 ft | 448 kts | 299° |
| 2026-05-07 17:59 | 51.62727 | -129.27084 | 36220 ft | 448 kts | 299° |
| 2026-05-07 17:59 | 51.66111 | -129.35519 | 36221 ft | 448 kts | 299° |
| 2026-05-07 18:00 | 51.69483 | -129.43954 | 36221 ft | 448 kts | 299° |
| 2026-05-07 18:00 | 51.72861 | -129.52430 | 36221 ft | 449 kts | 298° |
| 2026-05-07 18:01 | 51.76225 | -129.60901 | 36228 ft | 449 kts | 298° |
| 2026-05-07 18:01 | 51.79594 | -129.69411 | 36222 ft | 449 kts | 298° |
| 2026-05-07 18:02 | 51.84630 | -129.82184 | 36225 ft | 450 kts | 298° |
| 2026-05-07 18:03 | 51.87964 | -129.90676 | 36231 ft | 450 kts | 298° |
| 2026-05-07 18:03 | 51.91311 | -129.99230 | 36231 ft | 450 kts | 298° |
| 2026-05-07 18:04 | 51.94664 | -130.07830 | 36227 ft | 451 kts | 298° |
| 2026-05-07 18:04 | 51.98007 | -130.16430 | 36234 ft | 451 kts | 298° |
| 2026-05-07 18:05 | 52.01345 | -130.25046 | 36233 ft | 451 kts | 298° |
| 2026-05-07 18:05 | 52.04682 | -130.33691 | 36236 ft | 451 kts | 298° |
| 2026-05-07 18:06 | 52.08012 | -130.42344 | 36236 ft | 452 kts | 297° |
| 2026-05-07 18:06 | 52.11342 | -130.51030 | 36235 ft | 452 kts | 297° |
| 2026-05-07 18:07 | 52.14662 | -130.59717 | 36239 ft | 452 kts | 297° |
| 2026-05-07 18:07 | 52.17972 | -130.68408 | 36239 ft | 452 kts | 297° |
| 2026-05-07 18:08 | 52.21263 | -130.77079 | 36240 ft | 452 kts | 297° |
| 2026-05-07 18:08 | 52.24570 | -130.85824 | 36242 ft | 452 kts | 297° |
| 2026-05-07 18:09 | 52.27869 | -130.94576 | 36244 ft | 452 kts | 297° |
| 2026-05-07 18:09 | 52.31160 | -131.03337 | 36248 ft | 453 kts | 297° |
| 2026-05-07 18:10 | 52.34454 | -131.12137 | 36250 ft | 453 kts | 297° |
| 2026-05-07 18:10 | 52.37732 | -131.20923 | 36253 ft | 453 kts | 297° |
| 2026-05-07 18:11 | 52.41018 | -131.29763 | 36257 ft | 454 kts | 297° |
| 2026-05-07 18:11 | 52.44272 | -131.38550 | 36257 ft | 454 kts | 297° |
| 2026-05-07 18:12 | 52.47554 | -131.47434 | 36263 ft | 455 kts | 297° |
| 2026-05-07 18:12 | 52.50822 | -131.56320 | 36265 ft | 455 kts | 296° |
| 2026-05-07 18:13 | 52.54064 | -131.65171 | 36265 ft | 455 kts | 296° |
| 2026-05-07 18:13 | 52.57324 | -131.74089 | 36264 ft | 455 kts | 296° |
| 2026-05-07 18:14 | 52.60578 | -131.83030 | 36263 ft | 456 kts | 296° |
| 2026-05-07 18:14 | 52.63824 | -131.91979 | 36259 ft | 455 kts | 296° |
| 2026-05-07 18:15 | 52.67063 | -132.00939 | 36256 ft | 456 kts | 296° |
| 2026-05-07 18:15 | 52.70301 | -132.09929 | 36252 ft | 456 kts | 296° |
| 2026-05-07 18:16 | 52.73510 | -132.18875 | 36253 ft | 456 kts | 296° |
| 2026-05-07 18:16 | 52.76739 | -132.27907 | 36255 ft | 456 kts | 296° |
| 2026-05-07 18:17 | 52.79955 | -132.36934 | 36253 ft | 456 kts | 296° |
| 2026-05-07 18:17 | 52.83161 | -132.45966 | 36254 ft | 456 kts | 296° |
| 2026-05-07 18:18 | 52.86369 | -132.55036 | 36253 ft | 456 kts | 296° |
| 2026-05-07 18:18 | 52.89562 | -132.64099 | 36254 ft | 456 kts | 295° |
| 2026-05-07 18:19 | 52.92754 | -132.73188 | 36258 ft | 456 kts | 295° |
| 2026-05-07 18:19 | 52.95939 | -132.82293 | 36247 ft | 456 kts | 295° |
| 2026-05-07 18:20 | 52.99115 | -132.91404 | 36242 ft | 456 kts | 295° |
| 2026-05-07 18:20 | 53.02282 | -133.00524 | 36255 ft | 456 kts | 295° |
| 2026-05-07 18:21 | 53.05446 | -133.09669 | 36249 ft | 456 kts | 295° |
| 2026-05-07 18:21 | 53.08597 | -133.18810 | 36256 ft | 456 kts | 295° |
| 2026-05-07 18:22 | 53.11725 | -133.27917 | 36254 ft | 456 kts | 295° |
| 2026-05-07 18:22 | 53.14867 | -133.37099 | 36255 ft | 456 kts | 295° |
| 2026-05-07 18:23 | 53.18004 | -133.46298 | 36260 ft | 456 kts | 295° |
| 2026-05-07 18:23 | 53.21131 | -133.55505 | 36258 ft | 456 kts | 294° |
| 2026-05-07 18:24 | 53.24254 | -133.64733 | 36268 ft | 456 kts | 294° |
| 2026-05-07 18:24 | 53.27369 | -133.73972 | 36259 ft | 457 kts | 294° |
| 2026-05-07 18:25 | 53.30483 | -133.83243 | 36261 ft | 457 kts | 294° |
| 2026-05-07 18:25 | 53.33585 | -133.92515 | 36265 ft | 457 kts | 294° |
| 2026-05-07 18:26 | 53.36686 | -134.01816 | 36266 ft | 457 kts | 294° |
| 2026-05-07 18:26 | 53.39755 | -134.11059 | 36265 ft | 457 kts | 294° |
| 2026-05-07 18:27 | 53.42839 | -134.20380 | 36265 ft | 457 kts | 294° |
| 2026-05-07 18:27 | 53.45913 | -134.29706 | 36270 ft | 457 kts | 294° |
| 2026-05-07 18:28 | 53.48985 | -134.39065 | 36269 ft | 457 kts | 293° |
| 2026-05-07 18:28 | 53.52050 | -134.48434 | 36268 ft | 457 kts | 293° |
| 2026-05-07 18:29 | 53.55105 | -134.57810 | 36272 ft | 457 kts | 293° |
| 2026-05-07 18:29 | 53.58152 | -134.67199 | 36269 ft | 457 kts | 293° |
| 2026-05-07 18:30 | 53.61194 | -134.76607 | 36267 ft | 457 kts | 293° |
| 2026-05-07 18:30 | 53.64214 | -134.85985 | 36271 ft | 458 kts | 293° |
| 2026-05-07 18:31 | 53.67242 | -134.95425 | 36278 ft | 458 kts | 292° |
| 2026-05-07 18:31 | 53.70264 | -135.04880 | 36268 ft | 458 kts | 292° |
| 2026-05-07 18:32 | 53.73281 | -135.14358 | 36279 ft | 458 kts | 292° |
| 2026-05-07 18:32 | 53.75785 | -135.22253 | 36274 ft | 458 kts | 292° |
| 2026-05-07 18:33 | 53.78788 | -135.31753 | 36272 ft | 458 kts | 292° |
| 2026-05-07 18:33 | 53.81787 | -135.41281 | 36280 ft | 458 kts | 292° |
| 2026-05-07 18:34 | 53.84776 | -135.50812 | 36272 ft | 458 kts | 292° |
| 2026-05-07 18:34 | 53.87753 | -135.60343 | 36273 ft | 459 kts | 292° |
| 2026-05-07 18:35 | 53.90734 | -135.69926 | 36276 ft | 459 kts | 292° |
| 2026-05-07 18:35 | 53.93701 | -135.79502 | 36277 ft | 459 kts | 292° |
| 2026-05-07 18:36 | 53.96663 | -135.89099 | 36275 ft | 459 kts | 291° |
| 2026-05-07 18:36 | 53.99616 | -135.98706 | 36277 ft | 459 kts | 291° |
| 2026-05-07 18:37 | 54.02599 | -136.08228 | 36277 ft | 460 kts | 292° |
| 2026-05-07 18:37 | 54.05727 | -136.17832 | 36272 ft | 460 kts | 293° |
| 2026-05-07 18:38 | 54.08805 | -136.27323 | 36272 ft | 460 kts | 292° |
| 2026-05-07 18:38 | 54.11876 | -136.36900 | 36273 ft | 460 kts | 292° |
| 2026-05-07 18:39 | 54.14931 | -136.46500 | 36271 ft | 460 kts | 292° |
| 2026-05-07 18:39 | 54.17977 | -136.56114 | 36269 ft | 460 kts | 292° |
| 2026-05-07 18:40 | 54.21015 | -136.65733 | 36274 ft | 461 kts | 292° |
| 2026-05-07 18:40 | 54.24055 | -136.75400 | 36271 ft | 461 kts | 292° |
| 2026-05-07 18:41 | 54.27083 | -136.85065 | 36270 ft | 461 kts | 292° |
| 2026-05-07 18:41 | 54.30079 | -136.94665 | 36268 ft | 461 kts | 292° |
| 2026-05-07 18:42 | 54.33088 | -137.04350 | 36267 ft | 461 kts | 292° |
| 2026-05-07 18:42 | 54.36087 | -137.14039 | 36266 ft | 460 kts | 292° |
| 2026-05-07 18:43 | 54.39087 | -137.23769 | 36268 ft | 461 kts | 291° |
| 2026-05-07 18:43 | 54.42079 | -137.33517 | 36268 ft | 460 kts | 291° |
| 2026-05-07 18:44 | 54.45038 | -137.43194 | 36262 ft | 461 kts | 291° |
| 2026-05-07 18:44 | 54.48011 | -137.52958 | 36263 ft | 461 kts | 291° |
| 2026-05-07 18:45 | 54.50979 | -137.62741 | 36260 ft | 461 kts | 291° |
| 2026-05-07 18:45 | 54.53935 | -137.72531 | 36262 ft | 461 kts | 291° |
| 2026-05-07 18:46 | 54.56884 | -137.82335 | 36268 ft | 461 kts | 291° |
| 2026-05-07 18:46 | 54.59825 | -137.92153 | 36253 ft | 461 kts | 291° |
| 2026-05-07 18:47 | 54.62757 | -138.01981 | 36258 ft | 461 kts | 291° |
| 2026-05-07 18:47 | 54.65679 | -138.11819 | 36260 ft | 461 kts | 291° |
| 2026-05-07 18:48 | 54.68595 | -138.21678 | 36257 ft | 461 kts | 291° |
| 2026-05-07 18:48 | 54.71511 | -138.31575 | 36256 ft | 461 kts | 291° |
| 2026-05-07 18:49 | 54.74411 | -138.41459 | 36253 ft | 461 kts | 291° |
| 2026-05-07 18:49 | 54.77307 | -138.51375 | 36255 ft | 461 kts | 291° |
| 2026-05-07 18:50 | 54.80192 | -138.61294 | 36253 ft | 461 kts | 290° |
| 2026-05-07 18:50 | 54.83073 | -138.71238 | 36252 ft | 461 kts | 290° |
| 2026-05-07 18:51 | 54.85924 | -138.81124 | 36252 ft | 461 kts | 290° |
| 2026-05-07 18:51 | 54.88791 | -138.91106 | 36243 ft | 461 kts | 290° |
| 2026-05-07 18:52 | 54.91642 | -139.01076 | 36249 ft | 461 kts | 290° |
| 2026-05-07 18:52 | 54.94485 | -139.11056 | 36249 ft | 461 kts | 290° |
| 2026-05-07 18:53 | 54.97324 | -139.21070 | 36248 ft | 461 kts | 290° |
| 2026-05-07 18:53 | 55.00150 | -139.31080 | 36245 ft | 460 kts | 290° |
| 2026-05-07 18:54 | 55.02969 | -139.41109 | 36246 ft | 460 kts | 290° |
| 2026-05-07 18:54 | 55.05773 | -139.51127 | 36245 ft | 459 kts | 290° |
| 2026-05-07 18:55 | 55.08562 | -139.61134 | 36244 ft | 459 kts | 290° |
| 2026-05-07 18:55 | 55.11346 | -139.71168 | 36241 ft | 459 kts | 289° |
| 2026-05-07 18:56 | 55.14118 | -139.81204 | 36239 ft | 458 kts | 289° |
| 2026-05-07 18:56 | 55.16863 | -139.91187 | 36246 ft | 458 kts | 289° |
| 2026-05-07 18:57 | 55.19620 | -140.01252 | 36232 ft | 458 kts | 289° |
| 2026-05-07 18:57 | 55.22364 | -140.11316 | 36237 ft | 458 kts | 289° |
| 2026-05-07 18:58 | 55.25094 | -140.21372 | 36232 ft | 457 kts | 289° |
| 2026-05-07 18:58 | 55.27822 | -140.31467 | 36236 ft | 457 kts | 289° |
| 2026-05-07 18:59 | 55.30521 | -140.41499 | 36228 ft | 457 kts | 289° |
| 2026-05-07 18:59 | 55.33225 | -140.51594 | 36230 ft | 457 kts | 289° |
| 2026-05-07 19:00 | 55.35920 | -140.61697 | 36228 ft | 456 kts | 288° |
| 2026-05-07 19:00 | 55.38601 | -140.71796 | 36227 ft | 456 kts | 288° |
| 2026-05-07 19:01 | 55.41276 | -140.81915 | 36224 ft | 456 kts | 288° |
| 2026-05-07 19:01 | 55.43941 | -140.92042 | 36222 ft | 455 kts | 288° |
| 2026-05-07 19:02 | 55.46598 | -141.02186 | 36225 ft | 455 kts | 288° |
| 2026-05-07 19:02 | 55.49240 | -141.12318 | 36224 ft | 455 kts | 288° |
| 2026-05-07 19:03 | 55.51860 | -141.22409 | 36224 ft | 455 kts | 288° |
| 2026-05-07 19:03 | 55.54489 | -141.32582 | 36218 ft | 455 kts | 288° |
| 2026-05-07 19:04 | 55.57104 | -141.42746 | 36212 ft | 455 kts | 288° |
| 2026-05-07 19:04 | 55.59713 | -141.52937 | 36213 ft | 455 kts | 287° |
| 2026-05-07 19:05 | 55.62318 | -141.63154 | 36214 ft | 455 kts | 287° |
| 2026-05-07 19:05 | 55.64913 | -141.73379 | 36210 ft | 455 kts | 287° |
| 2026-05-07 19:06 | 55.67495 | -141.83600 | 36211 ft | 455 kts | 287° |
| 2026-05-07 19:06 | 55.71360 | -141.98990 | 36207 ft | 455 kts | 287° |
| 2026-05-07 19:07 | 55.73903 | -142.09175 | 36203 ft | 455 kts | 287° |
| 2026-05-07 19:07 | 55.76456 | -142.19448 | 36203 ft | 455 kts | 287° |
| 2026-05-07 19:08 | 55.79001 | -142.29734 | 36205 ft | 455 kts | 287° |
| 2026-05-07 19:08 | 55.81537 | -142.40034 | 36206 ft | 455 kts | 286° |
| 2026-05-07 19:09 | 55.84065 | -142.50352 | 36194 ft | 454 kts | 286° |
| 2026-05-07 19:09 | 55.86569 | -142.60617 | 36194 ft | 454 kts | 286° |
| 2026-05-07 19:10 | 55.89079 | -142.70954 | 36191 ft | 454 kts | 286° |
| 2026-05-07 19:10 | 55.91576 | -142.81291 | 36191 ft | 454 kts | 286° |
| 2026-05-07 19:11 | 55.94066 | -142.91644 | 36189 ft | 454 kts | 286° |
| 2026-05-07 19:11 | 55.96551 | -143.02029 | 36187 ft | 454 kts | 285° |
| 2026-05-07 19:12 | 55.99016 | -143.12378 | 36186 ft | 454 kts | 285° |
| 2026-05-07 19:12 | 56.01483 | -143.22785 | 36180 ft | 454 kts | 285° |
| 2026-05-07 19:13 | 56.03938 | -143.33192 | 36181 ft | 454 kts | 285° |
| 2026-05-07 19:13 | 56.06366 | -143.43535 | 36178 ft | 454 kts | 285° |
| 2026-05-07 19:14 | 56.08804 | -143.53973 | 36185 ft | 453 kts | 285° |
| 2026-05-07 19:14 | 56.11226 | -143.64390 | 36176 ft | 453 kts | 285° |
| 2026-05-07 19:15 | 56.13641 | -143.74830 | 36175 ft | 453 kts | 285° |
| 2026-05-07 19:15 | 56.16050 | -143.85297 | 36173 ft | 453 kts | 285° |
| 2026-05-07 19:16 | 56.18451 | -143.95774 | 36178 ft | 453 kts | 285° |
| 2026-05-07 19:16 | 56.20838 | -144.06265 | 36171 ft | 453 kts | 285° |
| 2026-05-07 19:17 | 56.23207 | -144.16711 | 36164 ft | 454 kts | 285° |
| 2026-05-07 19:17 | 56.25583 | -144.27226 | 36160 ft | 453 kts | 284° |
| 2026-05-07 19:18 | 56.27945 | -144.37743 | 36163 ft | 453 kts | 284° |
| 2026-05-07 19:18 | 56.29900 | -144.46489 | 36157 ft | 453 kts | 284° |
| 2026-05-07 19:19 | 56.32242 | -144.57020 | 36158 ft | 453 kts | 284° |
| 2026-05-07 19:19 | 56.34576 | -144.67568 | 36153 ft | 452 kts | 284° |
| 2026-05-07 19:20 | 56.36901 | -144.78127 | 36154 ft | 452 kts | 284° |
| 2026-05-07 19:20 | 56.39199 | -144.88615 | 36151 ft | 452 kts | 284° |
| 2026-05-07 19:21 | 56.41503 | -144.99185 | 36147 ft | 452 kts | 284° |
| 2026-05-07 19:21 | 56.43798 | -145.09766 | 36149 ft | 452 kts | 284° |
| 2026-05-07 19:22 | 56.46089 | -145.20380 | 36149 ft | 452 kts | 284° |
| 2026-05-07 19:22 | 56.48365 | -145.30982 | 36147 ft | 452 kts | 284° |
| 2026-05-07 19:23 | 56.50637 | -145.41622 | 36142 ft | 452 kts | 284° |
| 2026-05-07 19:23 | 56.52897 | -145.52261 | 36142 ft | 452 kts | 284° |
| 2026-05-07 19:24 | 56.55134 | -145.62844 | 36138 ft | 453 kts | 284° |
| 2026-05-07 19:24 | 56.57375 | -145.73502 | 36139 ft | 452 kts | 283° |
| 2026-05-07 19:25 | 56.59609 | -145.84183 | 36138 ft | 453 kts | 283° |
| 2026-05-07 19:25 | 56.61831 | -145.94864 | 36137 ft | 453 kts | 283° |
| 2026-05-07 19:26 | 56.64046 | -146.05569 | 36139 ft | 453 kts | 283° |
| 2026-05-07 19:26 | 56.66253 | -146.16293 | 36134 ft | 453 kts | 283° |
| 2026-05-07 19:27 | 56.68451 | -146.27028 | 36132 ft | 453 kts | 283° |
| 2026-05-07 19:27 | 56.70640 | -146.37778 | 36131 ft | 453 kts | 283° |
| 2026-05-07 19:28 | 56.72806 | -146.48472 | 36127 ft | 453 kts | 283° |
| 2026-05-07 19:28 | 56.74978 | -146.59256 | 36130 ft | 453 kts | 283° |
| 2026-05-07 19:29 | 56.77140 | -146.70051 | 36128 ft | 453 kts | 283° |
| 2026-05-07 19:29 | 56.79295 | -146.80862 | 36115 ft | 454 kts | 283° |
| 2026-05-07 19:30 | 56.81441 | -146.91694 | 36120 ft | 454 kts | 282° |
| 2026-05-07 19:30 | 56.83578 | -147.02537 | 36128 ft | 454 kts | 282° |
| 2026-05-07 19:31 | 56.85710 | -147.13418 | 36122 ft | 454 kts | 282° |
| 2026-05-07 19:31 | 56.87818 | -147.24232 | 36120 ft | 455 kts | 282° |
| 2026-05-07 19:32 | 56.89928 | -147.35122 | 36117 ft | 455 kts | 282° |
| 2026-05-07 19:32 | 56.92030 | -147.46029 | 36123 ft | 455 kts | 282° |
| 2026-05-07 19:33 | 56.94127 | -147.56971 | 36114 ft | 455 kts | 282° |
| 2026-05-07 19:33 | 56.96210 | -147.67905 | 36117 ft | 455 kts | 282° |
| 2026-05-07 19:34 | 56.98287 | -147.78867 | 36116 ft | 455 kts | 282° |
| 2026-05-07 19:34 | 57.00353 | -147.89836 | 36115 ft | 455 kts | 282° |
| 2026-05-07 19:35 | 57.02402 | -148.00778 | 36115 ft | 455 kts | 282° |
| 2026-05-07 19:35 | 57.04450 | -148.11779 | 36115 ft | 455 kts | 282° |
| 2026-05-07 19:36 | 57.06494 | -148.22816 | 36115 ft | 456 kts | 282° |
| 2026-05-07 19:36 | 57.08526 | -148.33861 | 36116 ft | 456 kts | 281° |
| 2026-05-07 19:37 | 57.10547 | -148.44907 | 36103 ft | 456 kts | 281° |
| 2026-05-07 19:37 | 57.12560 | -148.55979 | 36104 ft | 456 kts | 281° |
| 2026-05-07 19:38 | 57.14562 | -148.67057 | 36110 ft | 456 kts | 281° |
| 2026-05-07 19:38 | 57.16555 | -148.78146 | 36108 ft | 456 kts | 281° |
| 2026-05-07 19:39 | 57.18528 | -148.89193 | 36108 ft | 456 kts | 281° |
| 2026-05-07 19:39 | 57.20516 | -149.00392 | 36105 ft | 456 kts | 281° |
| 2026-05-07 19:40 | 57.22468 | -149.11457 | 36103 ft | 457 kts | 281° |
| 2026-05-07 19:40 | 57.24430 | -149.22645 | 36104 ft | 458 kts | 281° |
| 2026-05-07 19:41 | 57.26383 | -149.33848 | 36100 ft | 458 kts | 281° |
| 2026-05-07 19:41 | 57.28327 | -149.45073 | 36098 ft | 459 kts | 281° |
| 2026-05-07 19:42 | 57.30261 | -149.56309 | 36097 ft | 459 kts | 281° |
| 2026-05-07 19:42 | 57.32191 | -149.67588 | 36099 ft | 460 kts | 281° |
| 2026-05-07 19:43 | 57.34099 | -149.78818 | 36097 ft | 460 kts | 281° |
| 2026-05-07 19:43 | 57.36011 | -149.90133 | 36094 ft | 461 kts | 282° |
| 2026-05-07 19:44 | 57.37917 | -150.01489 | 36097 ft | 461 kts | 282° |
| 2026-05-07 19:44 | 57.39816 | -150.12872 | 36094 ft | 462 kts | 282° |
| 2026-05-07 19:45 | 57.41703 | -150.24260 | 36092 ft | 462 kts | 282° |
| 2026-05-07 19:45 | 57.43584 | -150.35687 | 36091 ft | 463 kts | 282° |
| 2026-05-07 19:46 | 57.45443 | -150.47047 | 36091 ft | 463 kts | 282° |
| 2026-05-07 19:46 | 57.46940 | -150.58614 | 36091 ft | 459 kts | 276° |
| 2026-05-07 19:47 | 57.48079 | -150.70306 | 36089 ft | 459 kts | 275° |
| 2026-05-07 19:47 | 57.49158 | -150.82007 | 36086 ft | 460 kts | 275° |
| 2026-05-07 19:48 | 57.50231 | -150.93748 | 36088 ft | 461 kts | 275° |
| 2026-05-07 19:48 | 57.51300 | -151.05502 | 36087 ft | 461 kts | 275° |
| 2026-05-07 19:49 | 57.52363 | -151.17264 | 36089 ft | 462 kts | 275° |
| 2026-05-07 19:49 | 57.53418 | -151.29063 | 36084 ft | 462 kts | 275° |
| 2026-05-07 19:50 | 57.54461 | -151.40868 | 36085 ft | 463 kts | 275° |
| 2026-05-07 19:50 | 57.55496 | -151.52708 | 36088 ft | 463 kts | 275° |
| 2026-05-07 19:51 | 57.56520 | -151.64560 | 36082 ft | 464 kts | 275° |
| 2026-05-07 19:51 | 57.57527 | -151.76338 | 36081 ft | 464 kts | 275° |
| 2026-05-07 19:52 | 57.58530 | -151.88218 | 36081 ft | 465 kts | 275° |
| 2026-05-07 19:52 | 57.59526 | -152.00141 | 36084 ft | 465 kts | 275° |
| 2026-05-07 19:53 | 57.60511 | -152.12080 | 36084 ft | 466 kts | 275° |
| 2026-05-07 19:53 | 57.61482 | -152.23997 | 36080 ft | 466 kts | 275° |
| 2026-05-07 19:54 | 57.62449 | -152.35993 | 36085 ft | 466 kts | 275° |
| 2026-05-07 19:54 | 57.63401 | -152.47960 | 36082 ft | 467 kts | 275° |
| 2026-05-07 19:55 | 57.64343 | -152.59953 | 36088 ft | 467 kts | 275° |
| 2026-05-07 19:55 | 57.65274 | -152.71962 | 36079 ft | 468 kts | 275° |
| 2026-05-07 19:56 | 57.66195 | -152.83989 | 36087 ft | 468 kts | 275° |
| 2026-05-07 19:56 | 57.67098 | -152.95949 | 36073 ft | 468 kts | 275° |
| 2026-05-07 19:57 | 57.67998 | -153.08009 | 36070 ft | 468 kts | 275° |
| 2026-05-07 19:57 | 57.68885 | -153.20059 | 36063 ft | 469 kts | 275° |
| 2026-05-07 19:58 | 57.69762 | -153.32132 | 36065 ft | 469 kts | 275° |
| 2026-05-07 19:58 | 57.70629 | -153.44229 | 36061 ft | 469 kts | 275° |
| 2026-05-07 19:59 | 57.71486 | -153.56355 | 36055 ft | 469 kts | 275° |
| 2026-05-07 19:59 | 57.72325 | -153.68398 | 36056 ft | 470 kts | 275° |
| 2026-05-07 20:00 | 57.73157 | -153.80540 | 36055 ft | 470 kts | 275° |
| 2026-05-07 20:00 | 57.73978 | -153.92669 | 36060 ft | 470 kts | 275° |
| 2026-05-07 20:01 | 57.74790 | -154.04837 | 36064 ft | 471 kts | 275° |
| 2026-05-07 20:01 | 57.75589 | -154.16991 | 36059 ft | 471 kts | 275° |
| 2026-05-07 20:02 | 57.76377 | -154.29159 | 36060 ft | 471 kts | 275° |
| 2026-05-07 20:02 | 57.77153 | -154.41339 | 36058 ft | 471 kts | 275° |
| 2026-05-07 20:03 | 57.77919 | -154.53549 | 36064 ft | 471 kts | 275° |
| 2026-05-07 20:03 | 57.78666 | -154.65633 | 36061 ft | 471 kts | 275° |
| 2026-05-07 20:04 | 57.79414 | -154.77946 | 36065 ft | 472 kts | 275° |
| 2026-05-07 20:04 | 57.80140 | -154.90080 | 36063 ft | 472 kts | 275° |
| 2026-05-07 20:05 | 57.80860 | -155.02319 | 36063 ft | 472 kts | 275° |
| 2026-05-07 20:05 | 57.81568 | -155.14564 | 36063 ft | 472 kts | 275° |
| 2026-05-07 20:06 | 57.82263 | -155.26802 | 36062 ft | 472 kts | 275° |
| 2026-05-07 20:06 | 57.82833 | -155.36998 | 36064 ft | 472 kts | 275° |
| 2026-05-07 20:07 | 57.83621 | -155.51330 | 36062 ft | 473 kts | 275° |
| 2026-05-07 20:07 | 57.84171 | -155.61523 | 36068 ft | 473 kts | 275° |
| 2026-05-07 20:08 | 57.84825 | -155.73831 | 36068 ft | 473 kts | 275° |
| 2026-05-07 20:08 | 57.85465 | -155.86129 | 36067 ft | 473 kts | 275° |
| 2026-05-07 20:09 | 57.86094 | -155.98443 | 36074 ft | 474 kts | 275° |
| 2026-05-07 20:10 | 57.87017 | -156.16949 | 36073 ft | 474 kts | 274° |
| 2026-05-07 20:10 | 57.87614 | -156.29217 | 36076 ft | 474 kts | 274° |
| 2026-05-07 20:11 | 57.88205 | -156.41634 | 36075 ft | 474 kts | 274° |
| 2026-05-07 20:11 | 57.88779 | -156.53919 | 36075 ft | 475 kts | 274° |
| 2026-05-07 20:12 | 57.89344 | -156.66299 | 36074 ft | 475 kts | 274° |
| 2026-05-07 20:12 | 57.89897 | -156.78663 | 36076 ft | 475 kts | 274° |
| 2026-05-07 20:13 | 57.90438 | -156.91065 | 36077 ft | 475 kts | 274° |
| 2026-05-07 20:13 | 57.90969 | -157.03475 | 36076 ft | 475 kts | 274° |
| 2026-05-07 20:14 | 57.91486 | -157.15867 | 36075 ft | 476 kts | 274° |
| 2026-05-07 20:14 | 57.91992 | -157.28286 | 36076 ft | 476 kts | 274° |
| 2026-05-07 20:15 | 57.92482 | -157.40615 | 36075 ft | 476 kts | 274° |
| 2026-05-07 20:15 | 57.92965 | -157.53074 | 36079 ft | 476 kts | 274° |
| 2026-05-07 20:16 | 57.93435 | -157.65517 | 36078 ft | 477 kts | 274° |
| 2026-05-07 20:16 | 57.93894 | -157.77966 | 36080 ft | 477 kts | 274° |
| 2026-05-07 20:17 | 57.94339 | -157.90401 | 36075 ft | 477 kts | 274° |
| 2026-05-07 20:17 | 57.94773 | -158.02875 | 36076 ft | 477 kts | 274° |
| 2026-05-07 20:18 | 57.95193 | -158.15269 | 36076 ft | 478 kts | 274° |
| 2026-05-07 20:18 | 57.95603 | -158.27752 | 36079 ft | 478 kts | 274° |
| 2026-05-07 20:19 | 57.96002 | -158.40257 | 36077 ft | 478 kts | 274° |
| 2026-05-07 20:19 | 57.96388 | -158.52775 | 36079 ft | 479 kts | 274° |
| 2026-05-07 20:20 | 57.96763 | -158.65295 | 36074 ft | 479 kts | 274° |
| 2026-05-07 20:20 | 57.97125 | -158.77837 | 36073 ft | 479 kts | 274° |
| 2026-05-07 20:21 | 57.97476 | -158.90403 | 36075 ft | 480 kts | 273° |
| 2026-05-07 20:21 | 57.97815 | -159.02972 | 36074 ft | 480 kts | 273° |
| 2026-05-07 20:22 | 57.98141 | -159.15547 | 36077 ft | 481 kts | 273° |
| 2026-05-07 20:22 | 57.98454 | -159.28122 | 36077 ft | 481 kts | 273° |
| 2026-05-07 20:23 | 57.98753 | -159.40613 | 36069 ft | 481 kts | 273° |
| 2026-05-07 20:23 | 57.99043 | -159.53237 | 36073 ft | 481 kts | 273° |
| 2026-05-07 20:24 | 57.99320 | -159.65836 | 36070 ft | 481 kts | 273° |
| 2026-05-07 20:24 | 57.99585 | -159.78474 | 36070 ft | 482 kts | 273° |
| 2026-05-07 20:25 | 57.99838 | -159.91090 | 36068 ft | 482 kts | 273° |
| 2026-05-07 20:25 | 58.00080 | -160.03665 | 36066 ft | 482 kts | 273° |
| 2026-05-07 20:26 | 58.00449 | -160.16283 | 36069 ft | 482 kts | 274° |
| 2026-05-07 20:26 | 58.00865 | -160.28916 | 36064 ft | 482 kts | 274° |
| 2026-05-07 20:27 | 58.01249 | -160.41540 | 36061 ft | 483 kts | 274° |
| 2026-05-07 20:27 | 58.01604 | -160.54179 | 36064 ft | 483 kts | 274° |
| 2026-05-07 20:28 | 58.01939 | -160.66771 | 36060 ft | 483 kts | 274° |
| 2026-05-07 20:28 | 58.02264 | -160.79438 | 36060 ft | 483 kts | 274° |
| 2026-05-07 20:29 | 58.02578 | -160.92118 | 36068 ft | 483 kts | 274° |
| 2026-05-07 20:29 | 58.02879 | -161.04784 | 36060 ft | 484 kts | 274° |
| 2026-05-07 20:30 | 58.03167 | -161.17454 | 36061 ft | 484 kts | 274° |
| 2026-05-07 20:30 | 58.03443 | -161.30110 | 36066 ft | 484 kts | 274° |
| 2026-05-07 20:31 | 58.03707 | -161.42829 | 36063 ft | 484 kts | 274° |
| 2026-05-07 20:31 | 58.03959 | -161.55533 | 36064 ft | 484 kts | 274° |
| 2026-05-07 20:32 | 58.04197 | -161.68245 | 36075 ft | 484 kts | 273° |
| 2026-05-07 20:32 | 58.04423 | -161.80959 | 36071 ft | 485 kts | 273° |
| 2026-05-07 20:33 | 58.04636 | -161.93647 | 36069 ft | 485 kts | 273° |
| 2026-05-07 20:33 | 58.04837 | -162.06393 | 36081 ft | 485 kts | 273° |
| 2026-05-07 20:34 | 58.05026 | -162.19123 | 36072 ft | 485 kts | 273° |
| 2026-05-07 20:34 | 58.05200 | -162.31772 | 36073 ft | 485 kts | 273° |
| 2026-05-07 20:35 | 58.05364 | -162.44582 | 36076 ft | 485 kts | 273° |
| 2026-05-07 20:35 | 58.05513 | -162.57218 | 36077 ft | 485 kts | 273° |
| 2026-05-07 20:36 | 58.05650 | -162.69947 | 36082 ft | 485 kts | 273° |
| 2026-05-07 20:36 | 58.05775 | -162.82697 | 36081 ft | 485 kts | 272° |
| 2026-05-07 20:37 | 58.05887 | -162.95413 | 36086 ft | 485 kts | 272° |
| 2026-05-07 20:37 | 58.05987 | -163.08159 | 36090 ft | 485 kts | 272° |
| 2026-05-07 20:38 | 58.06073 | -163.20891 | 36087 ft | 485 kts | 272° |
| 2026-05-07 20:38 | 58.06147 | -163.33652 | 36095 ft | 485 kts | 272° |
| 2026-05-07 20:39 | 58.06208 | -163.46328 | 36094 ft | 485 kts | 272° |
| 2026-05-07 20:39 | 58.06257 | -163.59066 | 36095 ft | 485 kts | 272° |
| 2026-05-07 20:40 | 58.06293 | -163.71823 | 36096 ft | 485 kts | 272° |
| 2026-05-07 20:40 | 58.06316 | -163.84579 | 36101 ft | 486 kts | 272° |
| 2026-05-07 20:41 | 58.06326 | -163.97348 | 36104 ft | 486 kts | 272° |
| 2026-05-07 20:41 | 58.06324 | -164.10113 | 36102 ft | 486 kts | 272° |
| 2026-05-07 20:42 | 58.06309 | -164.22882 | 36106 ft | 486 kts | 271° |
| 2026-05-07 20:42 | 58.06281 | -164.35570 | 36104 ft | 486 kts | 271° |
| 2026-05-07 20:43 | 58.06241 | -164.48359 | 36110 ft | 486 kts | 271° |
| 2026-05-07 20:43 | 58.06187 | -164.61120 | 36107 ft | 486 kts | 271° |
| 2026-05-07 20:44 | 58.06121 | -164.73899 | 36109 ft | 486 kts | 271° |
| 2026-05-07 20:44 | 58.06042 | -164.86666 | 36114 ft | 486 kts | 271° |
| 2026-05-07 20:45 | 58.05950 | -164.99452 | 36114 ft | 487 kts | 271° |
| 2026-05-07 20:45 | 58.05846 | -165.12236 | 36114 ft | 487 kts | 271° |
| 2026-05-07 20:46 | 58.05716 | -165.25007 | 36115 ft | 487 kts | 269° |
| 2026-05-07 20:46 | 58.05165 | -165.37772 | 36119 ft | 488 kts | 265° |
| 2026-05-07 20:47 | 58.04421 | -165.50439 | 36115 ft | 488 kts | 265° |
| 2026-05-07 20:47 | 58.03716 | -165.63195 | 36120 ft | 488 kts | 266° |
| 2026-05-07 20:48 | 58.03050 | -165.75953 | 36120 ft | 488 kts | 266° |
| 2026-05-07 20:48 | 58.02388 | -165.88699 | 36121 ft | 488 kts | 266° |
| 2026-05-07 20:49 | 58.01713 | -166.01444 | 36122 ft | 488 kts | 266° |
| 2026-05-07 20:49 | 58.01020 | -166.14207 | 36124 ft | 489 kts | 266° |
| 2026-05-07 20:50 | 58.00313 | -166.26966 | 36124 ft | 489 kts | 266° |
| 2026-05-07 20:50 | 57.99599 | -166.39626 | 36123 ft | 489 kts | 265° |
| 2026-05-07 20:51 | 57.98866 | -166.52396 | 36132 ft | 489 kts | 265° |
| 2026-05-07 20:51 | 57.98121 | -166.65143 | 36123 ft | 489 kts | 265° |
| 2026-05-07 20:52 | 57.97363 | -166.77894 | 36124 ft | 489 kts | 265° |
| 2026-05-07 20:52 | 57.96722 | -166.88507 | 36130 ft | 490 kts | 265° |
| 2026-05-07 20:53 | 57.95941 | -167.01231 | 36127 ft | 490 kts | 265° |
| 2026-05-07 20:53 | 57.95146 | -167.13981 | 36128 ft | 490 kts | 265° |
| 2026-05-07 20:54 | 57.94339 | -167.26717 | 36130 ft | 490 kts | 265° |
| 2026-05-07 20:54 | 57.93518 | -167.39460 | 36128 ft | 490 kts | 264° |
| 2026-05-07 20:55 | 57.92687 | -167.52165 | 36129 ft | 490 kts | 264° |
| 2026-05-07 20:55 | 57.91843 | -167.64858 | 36129 ft | 490 kts | 264° |
| 2026-05-07 20:56 | 57.90984 | -167.77585 | 36127 ft | 491 kts | 264° |
| 2026-05-07 20:56 | 57.90111 | -167.90320 | 36129 ft | 491 kts | 264° |
| 2026-05-07 20:57 | 57.89227 | -168.03032 | 36131 ft | 491 kts | 264° |
| 2026-05-07 20:57 | 57.88329 | -168.15747 | 36129 ft | 491 kts | 264° |
| 2026-05-07 20:58 | 57.87418 | -168.28463 | 36130 ft | 491 kts | 264° |
| 2026-05-07 20:58 | 57.86494 | -168.41178 | 36129 ft | 491 kts | 264° |
| 2026-05-07 20:59 | 57.85554 | -168.53928 | 36128 ft | 491 kts | 263° |
| 2026-05-07 20:59 | 57.84611 | -168.66541 | 36130 ft | 491 kts | 263° |
| 2026-05-07 21:00 | 57.83650 | -168.79229 | 36130 ft | 491 kts | 263° |
| 2026-05-07 21:00 | 57.82674 | -168.91924 | 36130 ft | 491 kts | 263° |
| 2026-05-07 21:01 | 57.81687 | -169.04607 | 36132 ft | 491 kts | 263° |
| 2026-05-07 21:01 | 57.80685 | -169.17301 | 36131 ft | 491 kts | 263° |
| 2026-05-07 21:02 | 57.79673 | -169.29958 | 36129 ft | 491 kts | 263° |
| 2026-05-07 21:02 | 57.78653 | -169.42552 | 36128 ft | 491 kts | 263° |
| 2026-05-07 21:03 | 57.77616 | -169.55194 | 36128 ft | 491 kts | 262° |
| 2026-05-07 21:03 | 57.76566 | -169.67837 | 36125 ft | 492 kts | 262° |
| 2026-05-07 21:04 | 57.75499 | -169.80516 | 36128 ft | 491 kts | 262° |
| 2026-05-07 21:04 | 57.74422 | -169.93161 | 36126 ft | 491 kts | 262° |
| 2026-05-07 21:05 | 57.73336 | -170.05769 | 36131 ft | 491 kts | 262° |
| 2026-05-07 21:05 | 57.72235 | -170.18384 | 36125 ft | 491 kts | 262° |
| 2026-05-07 21:06 | 57.71121 | -170.30993 | 36127 ft | 491 kts | 262° |
| 2026-05-07 21:06 | 57.69994 | -170.43607 | 36126 ft | 491 kts | 262° |
| 2026-05-07 21:07 | 57.68854 | -170.56217 | 36120 ft | 492 kts | 261° |
| 2026-05-07 21:07 | 57.67707 | -170.68762 | 36121 ft | 492 kts | 261° |
| 2026-05-07 21:08 | 57.66542 | -170.81356 | 36126 ft | 492 kts | 261° |
| 2026-05-07 21:08 | 57.65364 | -170.93945 | 36126 ft | 492 kts | 261° |
| 2026-05-07 21:09 | 57.64171 | -171.06553 | 36118 ft | 492 kts | 261° |
| 2026-05-07 21:09 | 57.62973 | -171.19079 | 36128 ft | 493 kts | 261° |
| 2026-05-07 21:10 | 57.61757 | -171.31649 | 36122 ft | 493 kts | 261° |
| 2026-05-07 21:10 | 57.60527 | -171.44237 | 36119 ft | 493 kts | 261° |
| 2026-05-07 21:11 | 57.59286 | -171.56793 | 36117 ft | 493 kts | 260° |
| 2026-05-07 21:11 | 57.57395 | -171.75664 | 36113 ft | 494 kts | 260° |
| 2026-05-07 21:12 | 57.56119 | -171.88239 | 36117 ft | 494 kts | 260° |
| 2026-05-07 21:12 | 57.54828 | -172.00826 | 36115 ft | 494 kts | 260° |
| 2026-05-07 21:13 | 57.53527 | -172.13391 | 36117 ft | 494 kts | 260° |
| 2026-05-07 21:13 | 57.52211 | -172.25962 | 36111 ft | 494 kts | 259° |
| 2026-05-07 21:14 | 57.50892 | -172.38426 | 36111 ft | 494 kts | 259° |
| 2026-05-07 21:14 | 57.49553 | -172.50965 | 36113 ft | 494 kts | 259° |
| 2026-05-07 21:15 | 57.48199 | -172.63501 | 36112 ft | 494 kts | 259° |
| 2026-05-07 21:15 | 57.46835 | -172.76024 | 36106 ft | 494 kts | 259° |
| 2026-05-07 21:16 | 57.45457 | -172.88536 | 36106 ft | 494 kts | 259° |
| 2026-05-07 21:16 | 57.44069 | -173.01021 | 36108 ft | 494 kts | 259° |
| 2026-05-07 21:17 | 57.42669 | -173.13509 | 36104 ft | 493 kts | 259° |
| 2026-05-07 21:17 | 57.41258 | -173.25960 | 36104 ft | 492 kts | 259° |
| 2026-05-07 21:18 | 57.39838 | -173.38379 | 36099 ft | 492 kts | 259° |
| 2026-05-07 21:18 | 57.38419 | -173.50671 | 36100 ft | 491 kts | 259° |
| 2026-05-07 21:19 | 57.36981 | -173.63019 | 36099 ft | 490 kts | 259° |
| 2026-05-07 21:19 | 57.35531 | -173.75350 | 36099 ft | 489 kts | 258° |
| 2026-05-07 21:20 | 57.34077 | -173.87608 | 36092 ft | 488 kts | 258° |
| 2026-05-07 21:20 | 57.32607 | -173.99902 | 36090 ft | 487 kts | 258° |
| 2026-05-07 21:21 | 57.31131 | -174.12125 | 36092 ft | 487 kts | 258° |
| 2026-05-07 21:21 | 57.29643 | -174.24338 | 36089 ft | 486 kts | 258° |
| 2026-05-07 21:22 | 57.28156 | -174.36438 | 36084 ft | 486 kts | 258° |
| 2026-05-07 21:22 | 57.26647 | -174.48611 | 36081 ft | 486 kts | 258° |
| 2026-05-07 21:23 | 57.25126 | -174.60774 | 36084 ft | 486 kts | 257° |
| 2026-05-07 21:23 | 57.23593 | -174.72936 | 36080 ft | 486 kts | 257° |
| 2026-05-07 21:24 | 57.22048 | -174.85087 | 36080 ft | 486 kts | 257° |
| 2026-05-07 21:24 | 57.20502 | -174.97143 | 36076 ft | 486 kts | 257° |
| 2026-05-07 21:25 | 57.18935 | -175.09270 | 36076 ft | 486 kts | 256° |
| 2026-05-07 21:25 | 57.17356 | -175.21378 | 36075 ft | 486 kts | 256° |
| 2026-05-07 21:26 | 57.15764 | -175.33492 | 36072 ft | 486 kts | 256° |
| 2026-05-07 21:26 | 57.14161 | -175.45587 | 36074 ft | 486 kts | 256° |
| 2026-05-07 21:27 | 57.12544 | -175.57692 | 36071 ft | 487 kts | 256° |
| 2026-05-07 21:27 | 57.10914 | -175.69796 | 36071 ft | 487 kts | 255° |
| 2026-05-07 21:28 | 57.09273 | -175.81881 | 36067 ft | 487 kts | 255° |
| 2026-05-07 21:28 | 57.07631 | -175.93885 | 36064 ft | 487 kts | 255° |
| 2026-05-07 21:29 | 57.05966 | -176.05957 | 36062 ft | 487 kts | 255° |
| 2026-05-07 21:29 | 57.04287 | -176.18040 | 36063 ft | 488 kts | 254° |
| 2026-05-07 21:30 | 57.02593 | -176.30133 | 36059 ft | 488 kts | 254° |
| 2026-05-07 21:30 | 57.00894 | -176.42190 | 36061 ft | 488 kts | 253° |
| 2026-05-07 21:31 | 56.99177 | -176.54248 | 36060 ft | 488 kts | 253° |